sensor_id;sensor_type;location;lat;lon;timestamp;temperature;humidity
44136;DHT22;29798;51.064;13.734;2022-08-11T00:01:58;18.20;99.90
44136;DHT22;29798;51.064;13.734;2022-08-11T00:04:25;18.10;99.90
44136;DHT22;29798;51.064;13.734;2022-08-11T00:06:52;18.00;99.90
44136;DHT22;29798;51.064;13.734;2022-08-11T00:09:19;17.90;99.90
44136;DHT22;29798;51.064;13.734;2022-08-11T00:14:19;17.70;99.90
44136;DHT22;29798;51.064;13.734;2022-08-11T00:19:26;17.80;99.90
44136;DHT22;29798;51.064;13.734;2022-08-11T00:21:54;17.80;99.90
44136;DHT22;29798;51.064;13.734;2022-08-11T00:24:21;17.60;99.90
44136;DHT22;29798;51.064;13.734;2022-08-11T00:26:48;17.70;99.90
44136;DHT22;29798;51.064;13.734;2022-08-11T00:29:15;17.70;99.90
44136;DHT22;29798;51.064;13.734;2022-08-11T00:31:48;17.70;99.90
44136;DHT22;29798;51.064;13.734;2022-08-11T00:34:16;17.80;99.90
44136;DHT22;29798;51.064;13.734;2022-08-11T00:36:58;17.80;99.90
44136;DHT22;29798;51.064;13.734;2022-08-11T00:39:29;17.70;99.90
44136;DHT22;29798;51.064;13.734;2022-08-11T00:44:44;17.50;99.90
44136;DHT22;29798;51.064;13.734;2022-08-11T01:01:20;17.70;99.90
44136;DHT22;29798;51.064;13.734;2022-08-11T01:20:03;17.40;99.90
44136;DHT22;29798;51.064;13.734;2022-08-11T01:39:48;17.40;99.90
44136;DHT22;29798;51.064;13.734;2022-08-11T01:45:36;17.50;99.90
44136;DHT22;29798;51.064;13.734;2022-08-11T01:48:16;17.50;99.90
44136;DHT22;29798;51.064;13.734;2022-08-11T01:50:52;17.50;99.90
44136;DHT22;29798;51.064;13.734;2022-08-11T02:02:47;17.30;99.90
44136;DHT22;29798;51.064;13.734;2022-08-11T02:08:39;17.20;99.90
44136;DHT22;29798;51.064;13.734;2022-08-11T02:11:24;17.20;99.90
44136;DHT22;29798;51.064;13.734;2022-08-11T02:22:17;17.20;99.90
44136;DHT22;29798;51.064;13.734;2022-08-11T02:25:20;17.30;99.90
44136;DHT22;29798;51.064;13.734;2022-08-11T02:28:09;17.20;99.90
44136;DHT22;29798;51.064;13.734;2022-08-11T02:30:40;17.30;99.90
44136;DHT22;29798;51.064;13.734;2022-08-11T02:33:37;17.10;99.90
44136;DHT22;29798;51.064;13.734;2022-08-11T02:36:23;17.10;99.90
44136;DHT22;29798;51.064;13.734;2022-08-11T02:39:02;17.00;99.90
44136;DHT22;29798;51.064;13.734;2022-08-11T02:41:38;17.00;99.90
44136;DHT22;29798;51.064;13.734;2022-08-11T02:44:31;16.90;99.90
44136;DHT22;29798;51.064;13.734;2022-08-11T02:47:06;16.80;99.90
44136;DHT22;29798;51.064;13.734;2022-08-11T02:49:46;16.80;99.90
44136;DHT22;29798;51.064;13.734;2022-08-11T02:52:22;16.80;99.90
44136;DHT22;29798;51.064;13.734;2022-08-11T02:57:50;16.60;99.90
44136;DHT22;29798;51.064;13.734;2022-08-11T03:00:20;16.50;99.90
44136;DHT22;29798;51.064;13.734;2022-08-11T03:19:56;16.20;99.90
44136;DHT22;29798;51.064;13.734;2022-08-11T03:22:36;16.30;99.90
44136;DHT22;29798;51.064;13.734;2022-08-11T03:25:11;16.40;99.90
44136;DHT22;29798;51.064;13.734;2022-08-11T03:27:56;16.30;99.90
44136;DHT22;29798;51.064;13.734;2022-08-11T03:30:38;16.40;99.90
44136;DHT22;29798;51.064;13.734;2022-08-11T03:41:24;16.40;99.90
44136;DHT22;29798;51.064;13.734;2022-08-11T03:44:17;16.40;99.90
44136;DHT22;29798;51.064;13.734;2022-08-11T03:46:50;16.40;99.90
44136;DHT22;29798;51.064;13.734;2022-08-11T03:49:35;16.40;99.90
44136;DHT22;29798;51.064;13.734;2022-08-11T03:57:57;16.30;99.90
44136;DHT22;29798;51.064;13.734;2022-08-11T04:00:44;16.30;99.90
44136;DHT22;29798;51.064;13.734;2022-08-11T04:12:11;16.40;99.90
44136;DHT22;29798;51.064;13.734;2022-08-11T04:46:11;16.60;99.90
44136;DHT22;29798;51.064;13.734;2022-08-11T05:01:26;16.80;99.90
44136;DHT22;29798;51.064;13.734;2022-08-11T05:10:50;17.10;99.90
44136;DHT22;29798;51.064;13.734;2022-08-11T05:13:21;17.10;99.90
44136;DHT22;29798;51.064;13.734;2022-08-11T05:16:41;17.10;99.90
44136;DHT22;29798;51.064;13.734;2022-08-11T05:19:33;17.20;99.90
44136;DHT22;29798;51.064;13.734;2022-08-11T05:22:19;17.20;99.90
44136;DHT22;29798;51.064;13.734;2022-08-11T05:25:08;18.60;99.90
44136;DHT22;29798;51.064;13.734;2022-08-11T05:30:44;17.30;99.90
44136;DHT22;29798;51.064;13.734;2022-08-11T05:33:32;17.40;99.90
44136;DHT22;29798;51.064;13.734;2022-08-11T05:39:16;17.60;99.90
44136;DHT22;29798;51.064;13.734;2022-08-11T05:42:06;17.60;99.90
44136;DHT22;29798;51.064;13.734;2022-08-11T05:44:56;17.80;99.90
44136;DHT22;29798;51.064;13.734;2022-08-11T05:47:47;17.90;99.90
44136;DHT22;29798;51.064;13.734;2022-08-11T05:50:32;17.90;99.90
44136;DHT22;29798;51.064;13.734;2022-08-11T05:53:16;18.00;99.90
44136;DHT22;29798;51.064;13.734;2022-08-11T05:56:03;18.10;99.90
44136;DHT22;29798;51.064;13.734;2022-08-11T05:58:48;18.10;99.90
44136;DHT22;29798;51.064;13.734;2022-08-11T06:03:49;18.20;99.90
44136;DHT22;29798;51.064;13.734;2022-08-11T06:06:36;18.20;99.90
44136;DHT22;29798;51.064;13.734;2022-08-11T06:09:04;18.30;99.90
44136;DHT22;29798;51.064;13.734;2022-08-11T06:11:30;18.40;99.90
44136;DHT22;29798;51.064;13.734;2022-08-11T06:14:02;18.50;99.90
44136;DHT22;29798;51.064;13.734;2022-08-11T06:16:28;18.70;99.90
44136;DHT22;29798;51.064;13.734;2022-08-11T06:18:54;18.80;99.90
44136;DHT22;29798;51.064;13.734;2022-08-11T06:21:20;18.90;99.90
44136;DHT22;29798;51.064;13.734;2022-08-11T06:23:46;19.00;99.90
44136;DHT22;29798;51.064;13.734;2022-08-11T06:26:12;19.10;99.90
44136;DHT22;29798;51.064;13.734;2022-08-11T06:28:39;19.20;99.90
44136;DHT22;29798;51.064;13.734;2022-08-11T06:36:42;19.50;99.90
44136;DHT22;29798;51.064;13.734;2022-08-11T06:39:19;19.60;99.90
44136;DHT22;29798;51.064;13.734;2022-08-11T06:42:04;19.80;99.90
44136;DHT22;29798;51.064;13.734;2022-08-11T06:44:40;19.80;99.90
44136;DHT22;29798;51.064;13.734;2022-08-11T06:47:10;19.90;99.90
44136;DHT22;29798;51.064;13.734;2022-08-11T06:49:41;20.00;99.90
44136;DHT22;29798;51.064;13.734;2022-08-11T06:52:29;20.00;99.90
44136;DHT22;29798;51.064;13.734;2022-08-11T06:54:57;20.10;99.90
44136;DHT22;29798;51.064;13.734;2022-08-11T06:57:32;20.20;99.90
44136;DHT22;29798;51.064;13.734;2022-08-11T07:00:18;20.20;99.90
44136;DHT22;29798;51.064;13.734;2022-08-11T07:03:05;20.40;99.90
44136;DHT22;29798;51.064;13.734;2022-08-11T07:05:39;20.50;99.90
44136;DHT22;29798;51.064;13.734;2022-08-11T07:08:33;20.60;99.90
44136;DHT22;29798;51.064;13.734;2022-08-11T07:14:29;20.90;99.90
44136;DHT22;29798;51.064;13.734;2022-08-11T07:17:15;21.10;99.90
44136;DHT22;29798;51.064;13.734;2022-08-11T07:19:46;21.30;99.90
44136;DHT22;29798;51.064;13.734;2022-08-11T07:22:38;21.40;99.90
44136;DHT22;29798;51.064;13.734;2022-08-11T07:25:24;21.50;99.90
44136;DHT22;29798;51.064;13.734;2022-08-11T07:28:13;21.60;99.90
44136;DHT22;29798;51.064;13.734;2022-08-11T07:31:12;21.70;99.90
44136;DHT22;29798;51.064;13.734;2022-08-11T07:33:45;21.80;99.90
44136;DHT22;29798;51.064;13.734;2022-08-11T07:36:12;21.90;99.90
44136;DHT22;29798;51.064;13.734;2022-08-11T07:38:40;22.10;99.90
44136;DHT22;29798;51.064;13.734;2022-08-11T07:41:11;22.20;99.90
44136;DHT22;29798;51.064;13.734;2022-08-11T07:43:38;22.30;99.90
44136;DHT22;29798;51.064;13.734;2022-08-11T07:46:05;22.40;99.90
44136;DHT22;29798;51.064;13.734;2022-08-11T07:48:50;22.50;99.90
44136;DHT22;29798;51.064;13.734;2022-08-11T07:51:35;22.60;99.90
44136;DHT22;29798;51.064;13.734;2022-08-11T07:54:20;22.80;99.90
44136;DHT22;29798;51.064;13.734;2022-08-11T07:56:46;23.00;99.90
44136;DHT22;29798;51.064;13.734;2022-08-11T07:59:12;23.20;99.90
44136;DHT22;29798;51.064;13.734;2022-08-11T08:01:56;23.20;99.90
44136;DHT22;29798;51.064;13.734;2022-08-11T08:04:42;23.40;99.90
44136;DHT22;29798;51.064;13.734;2022-08-11T08:07:28;23.60;99.90
44136;DHT22;29798;51.064;13.734;2022-08-11T08:10:13;23.80;99.90
44136;DHT22;29798;51.064;13.734;2022-08-11T08:13:00;24.00;99.90
44136;DHT22;29798;51.064;13.734;2022-08-11T08:15:45;24.30;99.90
44136;DHT22;29798;51.064;13.734;2022-08-11T08:18:33;24.40;99.90
44136;DHT22;29798;51.064;13.734;2022-08-11T08:20:59;24.60;99.90
44136;DHT22;29798;51.064;13.734;2022-08-11T08:23:37;24.70;99.90
44136;DHT22;29798;51.064;13.734;2022-08-11T08:26:05;24.70;99.90
44136;DHT22;29798;51.064;13.734;2022-08-11T08:28:51;24.80;99.90
44136;DHT22;29798;51.064;13.734;2022-08-11T08:31:18;25.00;99.40
44136;DHT22;29798;51.064;13.734;2022-08-11T08:33:44;25.10;98.50
44136;DHT22;29798;51.064;13.734;2022-08-11T08:36:10;25.30;98.20
44136;DHT22;29798;51.064;13.734;2022-08-11T08:41:11;25.80;96.50
44136;DHT22;29798;51.064;13.734;2022-08-11T08:43:39;26.10;96.10
44136;DHT22;29798;51.064;13.734;2022-08-11T08:46:08;26.40;95.20
44136;DHT22;29798;51.064;13.734;2022-08-11T08:48:34;26.40;94.70
44136;DHT22;29798;51.064;13.734;2022-08-11T08:51:02;26.50;94.70
44136;DHT22;29798;51.064;13.734;2022-08-11T08:53:49;26.70;94.10
44136;DHT22;29798;51.064;13.734;2022-08-11T08:56:16;27.10;94.30
44136;DHT22;29798;51.064;13.734;2022-08-11T08:58:44;27.40;93.10
44136;DHT22;29798;51.064;13.734;2022-08-11T09:01:11;27.60;92.40
44136;DHT22;29798;51.064;13.734;2022-08-11T09:03:38;27.70;91.70
44136;DHT22;29798;51.064;13.734;2022-08-11T09:06:05;27.90;91.60
44136;DHT22;29798;51.064;13.734;2022-08-11T09:08:31;27.90;89.60
44136;DHT22;29798;51.064;13.734;2022-08-11T09:10:58;27.90;89.20
44136;DHT22;29798;51.064;13.734;2022-08-11T09:13:44;28.10;88.60
44136;DHT22;29798;51.064;13.734;2022-08-11T09:16:11;28.40;87.30
44136;DHT22;29798;51.064;13.734;2022-08-11T09:18:37;28.70;86.20
44136;DHT22;29798;51.064;13.734;2022-08-11T09:21:04;28.90;85.30
44136;DHT22;29798;51.064;13.734;2022-08-11T09:23:31;28.80;84.60
44136;DHT22;29798;51.064;13.734;2022-08-11T09:26:23;28.80;83.60
44136;DHT22;29798;51.064;13.734;2022-08-11T09:29:08;28.70;83.80
44136;DHT22;29798;51.064;13.734;2022-08-11T09:31:35;29.00;83.30
44136;DHT22;29798;51.064;13.734;2022-08-11T09:34:02;29.20;82.60
44136;DHT22;29798;51.064;13.734;2022-08-11T09:36:28;29.40;81.70
44136;DHT22;29798;51.064;13.734;2022-08-11T09:39:13;29.50;80.90
44136;DHT22;29798;51.064;13.734;2022-08-11T09:42:01;29.30;80.70
44136;DHT22;29798;51.064;13.734;2022-08-11T09:44:28;29.30;81.30
44136;DHT22;29798;51.064;13.734;2022-08-11T09:47:17;29.50;80.70
44136;DHT22;29798;51.064;13.734;2022-08-11T09:49:45;30.00;80.40
44136;DHT22;29798;51.064;13.734;2022-08-11T09:52:13;30.50;78.60
44136;DHT22;29798;51.064;13.734;2022-08-11T09:54:43;30.80;77.30
44136;DHT22;29798;51.064;13.734;2022-08-11T09:57:09;30.60;76.50
44136;DHT22;29798;51.064;13.734;2022-08-11T09:59:53;30.30;77.20
44136;DHT22;29798;51.064;13.734;2022-08-11T10:02:24;30.20;76.90
44136;DHT22;29798;51.064;13.734;2022-08-11T10:04:51;30.10;77.60
44136;DHT22;29798;51.064;13.734;2022-08-11T10:07:41;30.40;77.40
44136;DHT22;29798;51.064;13.734;2022-08-11T10:10:15;30.50;76.40
44136;DHT22;29798;51.064;13.734;2022-08-11T10:12:45;30.30;75.80
44136;DHT22;29798;51.064;13.734;2022-08-11T10:15:15;30.10;75.60
44136;DHT22;29798;51.064;13.734;2022-08-11T10:18:03;29.80;75.80
44136;DHT22;29798;51.064;13.734;2022-08-11T10:20:50;29.50;75.90
44136;DHT22;29798;51.064;13.734;2022-08-11T10:23:19;29.70;75.90
44136;DHT22;29798;51.064;13.734;2022-08-11T10:26:04;30.60;74.50
44136;DHT22;29798;51.064;13.734;2022-08-11T10:28:50;31.70;72.90
44136;DHT22;29798;51.064;13.734;2022-08-11T10:31:18;32.40;71.00
44136;DHT22;29798;51.064;13.734;2022-08-11T10:34:03;32.70;69.90
44136;DHT22;29798;51.064;13.734;2022-08-11T10:36:31;32.30;70.10
44136;DHT22;29798;51.064;13.734;2022-08-11T10:38:59;32.10;70.00
44136;DHT22;29798;51.064;13.734;2022-08-11T10:41:25;32.20;69.20
44136;DHT22;29798;51.064;13.734;2022-08-11T10:44:11;32.30;68.40
44136;DHT22;29798;51.064;13.734;2022-08-11T10:46:37;32.10;68.50
44136;DHT22;29798;51.064;13.734;2022-08-11T10:49:22;32.20;67.40
44136;DHT22;29798;51.064;13.734;2022-08-11T10:51:49;32.10;66.60
44136;DHT22;29798;51.064;13.734;2022-08-11T10:54:34;32.60;65.50
44136;DHT22;29798;51.064;13.734;2022-08-11T10:57:19;33.60;64.00
44136;DHT22;29798;51.064;13.734;2022-08-11T11:00:04;34.40;61.80
44136;DHT22;29798;51.064;13.734;2022-08-11T11:02:31;35.00;60.30
44136;DHT22;29798;51.064;13.734;2022-08-11T11:07:38;35.20;58.60
44136;DHT22;29798;51.064;13.734;2022-08-11T11:10:12;35.40;58.20
44136;DHT22;29798;51.064;13.734;2022-08-11T11:12:39;35.60;57.70
44136;DHT22;29798;51.064;13.734;2022-08-11T11:15:27;35.60;57.10
44136;DHT22;29798;51.064;13.734;2022-08-11T11:21:17;35.30;57.50
44136;DHT22;29798;51.064;13.734;2022-08-11T11:37:08;37.40;53.40
44136;DHT22;29798;51.064;13.734;2022-08-11T11:39:37;38.00;52.00
44136;DHT22;29798;51.064;13.734;2022-08-11T11:42:04;38.10;50.60
44136;DHT22;29798;51.064;13.734;2022-08-11T11:44:32;37.80;50.50
44136;DHT22;29798;51.064;13.734;2022-08-11T11:46:59;37.70;51.10
44136;DHT22;29798;51.064;13.734;2022-08-11T11:49:26;37.80;50.70
44136;DHT22;29798;51.064;13.734;2022-08-11T11:51:53;37.80;50.70
44136;DHT22;29798;51.064;13.734;2022-08-11T11:54:21;37.90;50.40
44136;DHT22;29798;51.064;13.734;2022-08-11T11:56:49;38.10;50.10
44136;DHT22;29798;51.064;13.734;2022-08-11T11:59:18;38.40;48.90
44136;DHT22;29798;51.064;13.734;2022-08-11T12:02:03;38.50;48.40
44136;DHT22;29798;51.064;13.734;2022-08-11T12:04:30;38.50;48.50
44136;DHT22;29798;51.064;13.734;2022-08-11T12:06:56;38.50;48.30
44136;DHT22;29798;51.064;13.734;2022-08-11T12:09:42;38.70;48.00
44136;DHT22;29798;51.064;13.734;2022-08-11T12:12:09;39.00;47.20
44136;DHT22;29798;51.064;13.734;2022-08-11T12:14:53;39.00;46.70
44136;DHT22;29798;51.064;13.734;2022-08-11T12:17:19;39.20;46.80
44136;DHT22;29798;51.064;13.734;2022-08-11T12:19:45;39.30;46.40
44136;DHT22;29798;51.064;13.734;2022-08-11T12:22:12;39.50;44.60
44136;DHT22;29798;51.064;13.734;2022-08-11T12:25:13;39.60;44.50
44136;DHT22;29798;51.064;13.734;2022-08-11T12:27:58;39.50;45.60
44136;DHT22;29798;51.064;13.734;2022-08-11T12:30:24;39.70;45.20
44136;DHT22;29798;51.064;13.734;2022-08-11T12:32:50;39.80;44.60
44136;DHT22;29798;51.064;13.734;2022-08-11T12:35:16;40.10;44.50
44136;DHT22;29798;51.064;13.734;2022-08-11T12:40:13;40.30;44.30
44136;DHT22;29798;51.064;13.734;2022-08-11T12:43:00;39.90;44.50
44136;DHT22;29798;51.064;13.734;2022-08-11T12:45:46;39.20;44.80
44136;DHT22;29798;51.064;13.734;2022-08-11T12:48:17;40.00;44.40
44136;DHT22;29798;51.064;13.734;2022-08-11T12:51:05;40.50;44.00
44136;DHT22;29798;51.064;13.734;2022-08-11T12:53:52;40.60;43.90
44136;DHT22;29798;51.064;13.734;2022-08-11T12:56:20;40.20;44.30
44136;DHT22;29798;51.064;13.734;2022-08-11T12:59:18;40.40;44.00
44136;DHT22;29798;51.064;13.734;2022-08-11T13:02:02;41.00;43.40
44136;DHT22;29798;51.064;13.734;2022-08-11T13:04:47;41.30;43.20
44136;DHT22;29798;51.064;13.734;2022-08-11T13:07:20;42.30;42.50
44136;DHT22;29798;51.064;13.734;2022-08-11T13:09:46;43.00;41.70
44136;DHT22;29798;51.064;13.734;2022-08-11T13:12:13;43.70;41.50
44136;DHT22;29798;51.064;13.734;2022-08-11T13:14:58;44.20;40.70
44136;DHT22;29798;51.064;13.734;2022-08-11T13:17:24;44.70;40.10
44136;DHT22;29798;51.064;13.734;2022-08-11T13:19:51;44.00;39.80
44136;DHT22;29798;51.064;13.734;2022-08-11T13:22:18;42.70;40.40
44136;DHT22;29798;51.064;13.734;2022-08-11T13:24:45;42.00;41.40
44136;DHT22;29798;51.064;13.734;2022-08-11T13:27:14;42.20;42.00
44136;DHT22;29798;51.064;13.734;2022-08-11T13:29:41;43.10;41.30
44136;DHT22;29798;51.064;13.734;2022-08-11T13:32:09;43.50;41.30
44136;DHT22;29798;51.064;13.734;2022-08-11T13:34:36;43.60;40.40
44136;DHT22;29798;51.064;13.734;2022-08-11T13:37:06;43.60;40.80
44136;DHT22;29798;51.064;13.734;2022-08-11T13:39:32;43.40;40.60
44136;DHT22;29798;51.064;13.734;2022-08-11T13:42:00;43.50;40.60
44136;DHT22;29798;51.064;13.734;2022-08-11T13:44:27;44.00;40.40
44136;DHT22;29798;51.064;13.734;2022-08-11T13:46:58;44.10;40.10
44136;DHT22;29798;51.064;13.734;2022-08-11T13:49:30;44.30;40.00
44136;DHT22;29798;51.064;13.734;2022-08-11T13:51:58;44.70;39.50
44136;DHT22;29798;51.064;13.734;2022-08-11T13:54:25;44.20;39.90
44136;DHT22;29798;51.064;13.734;2022-08-11T13:56:53;43.90;40.10
44136;DHT22;29798;51.064;13.734;2022-08-11T13:59:20;44.00;40.30
44136;DHT22;29798;51.064;13.734;2022-08-11T14:01:48;43.70;40.70
44136;DHT22;29798;51.064;13.734;2022-08-11T14:07:20;44.10;40.80
44136;DHT22;29798;51.064;13.734;2022-08-11T14:09:48;44.40;40.50
44136;DHT22;29798;51.064;13.734;2022-08-11T14:12:22;44.70;40.60
44136;DHT22;29798;51.064;13.734;2022-08-11T14:15:13;45.30;40.50
44136;DHT22;29798;51.064;13.734;2022-08-11T14:17:45;44.40;40.20
44136;DHT22;29798;51.064;13.734;2022-08-11T14:20:15;44.10;40.70
44136;DHT22;29798;51.064;13.734;2022-08-11T14:22:42;44.10;40.90
44136;DHT22;29798;51.064;13.734;2022-08-11T14:25:08;44.10;41.10
44136;DHT22;29798;51.064;13.734;2022-08-11T14:27:34;44.00;40.90
44136;DHT22;29798;51.064;13.734;2022-08-11T14:30:00;44.30;40.90
44136;DHT22;29798;51.064;13.734;2022-08-11T14:32:27;44.70;40.80
44136;DHT22;29798;51.064;13.734;2022-08-11T14:34:53;44.70;40.50
44136;DHT22;29798;51.064;13.734;2022-08-11T14:37:22;44.40;40.60
44136;DHT22;29798;51.064;13.734;2022-08-11T14:39:51;44.40;40.80
44136;DHT22;29798;51.064;13.734;2022-08-11T14:42:21;44.20;41.20
44136;DHT22;29798;51.064;13.734;2022-08-11T14:45:13;44.40;41.10
44136;DHT22;29798;51.064;13.734;2022-08-11T14:47:59;44.70;40.60
44136;DHT22;29798;51.064;13.734;2022-08-11T14:50:27;44.80;40.40
44136;DHT22;29798;51.064;13.734;2022-08-11T14:52:55;44.70;40.40
44136;DHT22;29798;51.064;13.734;2022-08-11T14:55:23;44.80;40.50
44136;DHT22;29798;51.064;13.734;2022-08-11T14:58:10;44.80;40.30
44136;DHT22;29798;51.064;13.734;2022-08-11T15:00:40;44.60;40.40
44136;DHT22;29798;51.064;13.734;2022-08-11T15:03:06;45.00;40.10
44136;DHT22;29798;51.064;13.734;2022-08-11T15:05:39;45.00;40.00
44136;DHT22;29798;51.064;13.734;2022-08-11T15:08:08;44.80;40.00
44136;DHT22;29798;51.064;13.734;2022-08-11T15:10:34;44.90;39.60
44136;DHT22;29798;51.064;13.734;2022-08-11T15:13:01;44.90;40.00
44136;DHT22;29798;51.064;13.734;2022-08-11T15:15:27;45.10;40.00
44136;DHT22;29798;51.064;13.734;2022-08-11T15:18:13;44.80;40.30
44136;DHT22;29798;51.064;13.734;2022-08-11T15:20:41;44.90;40.10
44136;DHT22;29798;51.064;13.734;2022-08-11T15:23:26;45.00;40.10
44136;DHT22;29798;51.064;13.734;2022-08-11T15:26:12;45.20;40.00
44136;DHT22;29798;51.064;13.734;2022-08-11T15:29:07;45.10;39.80
44136;DHT22;29798;51.064;13.734;2022-08-11T15:31:52;45.20;39.60
44136;DHT22;29798;51.064;13.734;2022-08-11T15:34:37;45.20;39.60
44136;DHT22;29798;51.064;13.734;2022-08-11T15:37:23;45.30;39.70
44136;DHT22;29798;51.064;13.734;2022-08-11T15:45:49;44.30;40.10
44136;DHT22;29798;51.064;13.734;2022-08-11T15:48:18;43.80;40.60
44136;DHT22;29798;51.064;13.734;2022-08-11T15:50:48;43.80;41.00
44136;DHT22;29798;51.064;13.734;2022-08-11T15:53:19;44.00;40.50
44136;DHT22;29798;51.064;13.734;2022-08-11T15:55:54;44.30;40.30
44136;DHT22;29798;51.064;13.734;2022-08-11T15:58:21;44.40;40.00
44136;DHT22;29798;51.064;13.734;2022-08-11T16:01:07;44.40;39.70
44136;DHT22;29798;51.064;13.734;2022-08-11T16:04:02;44.30;39.70
44136;DHT22;29798;51.064;13.734;2022-08-11T16:09:17;44.00;40.20
44136;DHT22;29798;51.064;13.734;2022-08-11T16:11:46;43.80;40.40
44136;DHT22;29798;51.064;13.734;2022-08-11T16:14:13;44.10;40.50
44136;DHT22;29798;51.064;13.734;2022-08-11T16:16:59;43.90;40.40
44136;DHT22;29798;51.064;13.734;2022-08-11T16:19:28;43.90;40.20
44136;DHT22;29798;51.064;13.734;2022-08-11T16:22:04;43.60;40.60
44136;DHT22;29798;51.064;13.734;2022-08-11T16:24:34;43.70;40.70
44136;DHT22;29798;51.064;13.734;2022-08-11T16:27:03;43.80;40.50
44136;DHT22;29798;51.064;13.734;2022-08-11T16:29:30;43.80;40.50
44136;DHT22;29798;51.064;13.734;2022-08-11T16:31:56;43.40;40.90
44136;DHT22;29798;51.064;13.734;2022-08-11T16:34:45;43.10;40.70
44136;DHT22;29798;51.064;13.734;2022-08-11T16:37:36;42.90;41.20
44136;DHT22;29798;51.064;13.734;2022-08-11T16:40:21;42.70;41.10
44136;DHT22;29798;51.064;13.734;2022-08-11T16:42:48;43.00;41.00
44136;DHT22;29798;51.064;13.734;2022-08-11T16:45:33;43.00;41.00
44136;DHT22;29798;51.064;13.734;2022-08-11T16:48:20;42.90;41.40
44136;DHT22;29798;51.064;13.734;2022-08-11T16:50:47;42.30;41.60
44136;DHT22;29798;51.064;13.734;2022-08-11T16:53:13;42.20;41.60
44136;DHT22;29798;51.064;13.734;2022-08-11T16:55:42;42.10;41.70
44136;DHT22;29798;51.064;13.734;2022-08-11T16:58:09;42.00;41.90
44136;DHT22;29798;51.064;13.734;2022-08-11T17:00:54;41.70;42.10
44136;DHT22;29798;51.064;13.734;2022-08-11T17:03:23;41.70;42.20
44136;DHT22;29798;51.064;13.734;2022-08-11T17:06:07;41.30;42.40
44136;DHT22;29798;51.064;13.734;2022-08-11T17:09:14;41.10;42.70
44136;DHT22;29798;51.064;13.734;2022-08-11T17:12:03;41.00;43.00
44136;DHT22;29798;51.064;13.734;2022-08-11T17:14:51;40.80;43.30
44136;DHT22;29798;51.064;13.734;2022-08-11T17:17:23;40.40;43.60
44136;DHT22;29798;51.064;13.734;2022-08-11T17:19:52;40.00;43.90
44136;DHT22;29798;51.064;13.734;2022-08-11T17:22:20;39.80;44.10
44136;DHT22;29798;51.064;13.734;2022-08-11T17:25:05;39.50;44.80
44136;DHT22;29798;51.064;13.734;2022-08-11T17:27:32;39.50;44.70
44136;DHT22;29798;51.064;13.734;2022-08-11T17:30:03;39.50;44.40
44136;DHT22;29798;51.064;13.734;2022-08-11T17:32:32;39.50;44.60
44136;DHT22;29798;51.064;13.734;2022-08-11T17:35:20;39.40;44.60
44136;DHT22;29798;51.064;13.734;2022-08-11T17:40:29;38.80;45.00
44136;DHT22;29798;51.064;13.734;2022-08-11T17:42:56;38.30;45.50
44136;DHT22;29798;51.064;13.734;2022-08-11T17:45:42;37.80;46.00
44136;DHT22;29798;51.064;13.734;2022-08-11T17:48:28;37.40;46.50
44136;DHT22;29798;51.064;13.734;2022-08-11T17:50:56;36.80;46.90
44136;DHT22;29798;51.064;13.734;2022-08-11T17:53:28;36.50;47.30
44136;DHT22;29798;51.064;13.734;2022-08-11T17:56:15;35.60;48.20
44136;DHT22;29798;51.064;13.734;2022-08-11T17:59:00;34.10;49.90
44136;DHT22;29798;51.064;13.734;2022-08-11T18:01:46;32.80;51.50
44136;DHT22;29798;51.064;13.734;2022-08-11T18:04:14;31.60;53.00
44136;DHT22;29798;51.064;13.734;2022-08-11T18:06:40;30.70;54.30
44136;DHT22;29798;51.064;13.734;2022-08-11T18:09:07;29.70;55.50
44136;DHT22;29798;51.064;13.734;2022-08-11T18:11:59;29.10;56.60
44136;DHT22;29798;51.064;13.734;2022-08-11T18:14:45;28.60;57.60
44136;DHT22;29798;51.064;13.734;2022-08-11T18:17:33;28.50;57.80
44136;DHT22;29798;51.064;13.734;2022-08-11T18:20:18;28.40;57.80
44136;DHT22;29798;51.064;13.734;2022-08-11T18:23:04;28.10;58.30
44136;DHT22;29798;51.064;13.734;2022-08-11T18:25:51;27.70;59.20
44136;DHT22;29798;51.064;13.734;2022-08-11T18:28:38;27.10;60.20
44136;DHT22;29798;51.064;13.734;2022-08-11T18:31:26;26.70;62.30
44136;DHT22;29798;51.064;13.734;2022-08-11T18:34:13;26.20;62.40
44136;DHT22;29798;51.064;13.734;2022-08-11T18:37:01;25.90;63.50
44136;DHT22;29798;51.064;13.734;2022-08-11T18:39:49;25.60;64.50
44136;DHT22;29798;51.064;13.734;2022-08-11T18:42:39;25.40;65.20
44136;DHT22;29798;51.064;13.734;2022-08-11T18:45:24;25.10;65.90
44136;DHT22;29798;51.064;13.734;2022-08-11T18:48:13;24.90;67.50
44136;DHT22;29798;51.064;13.734;2022-08-11T18:50:59;24.70;67.80
44136;DHT22;29798;51.064;13.734;2022-08-11T18:53:46;24.50;68.40
44136;DHT22;29798;51.064;13.734;2022-08-11T18:56:33;24.30;68.80
44136;DHT22;29798;51.064;13.734;2022-08-11T18:59:19;24.20;69.50
44136;DHT22;29798;51.064;13.734;2022-08-11T19:02:04;24.00;70.10
44136;DHT22;29798;51.064;13.734;2022-08-11T19:04:49;23.90;70.30
44136;DHT22;29798;51.064;13.734;2022-08-11T19:07:34;23.80;71.70
44136;DHT22;29798;51.064;13.734;2022-08-11T19:10:20;23.60;71.90
44136;DHT22;29798;51.064;13.734;2022-08-11T19:13:07;23.50;72.40
44136;DHT22;29798;51.064;13.734;2022-08-11T19:15:53;23.40;72.90
44136;DHT22;29798;51.064;13.734;2022-08-11T19:18:38;23.30;73.30
44136;DHT22;29798;51.064;13.734;2022-08-11T19:21:23;23.20;73.80
44136;DHT22;29798;51.064;13.734;2022-08-11T19:24:09;23.10;74.10
44136;DHT22;29798;51.064;13.734;2022-08-11T19:26:54;23.00;74.50
44136;DHT22;29798;51.064;13.734;2022-08-11T19:29:38;22.90;75.40
44136;DHT22;29798;51.064;13.734;2022-08-11T19:32:24;22.80;75.50
44136;DHT22;29798;51.064;13.734;2022-08-11T19:35:09;22.70;76.30
44136;DHT22;29798;51.064;13.734;2022-08-11T19:37:54;22.60;76.50
44136;DHT22;29798;51.064;13.734;2022-08-11T19:40:38;22.50;76.90
44136;DHT22;29798;51.064;13.734;2022-08-11T19:43:24;22.40;77.30
44136;DHT22;29798;51.064;13.734;2022-08-11T19:46:09;22.40;77.70
44136;DHT22;29798;51.064;13.734;2022-08-11T19:48:54;22.30;78.20
44136;DHT22;29798;51.064;13.734;2022-08-11T19:51:40;22.20;78.30
44136;DHT22;29798;51.064;13.734;2022-08-11T19:54:25;22.10;78.50
44136;DHT22;29798;51.064;13.734;2022-08-11T19:57:11;22.10;78.90
44136;DHT22;29798;51.064;13.734;2022-08-11T19:59:56;22.00;79.40
44136;DHT22;29798;51.064;13.734;2022-08-11T20:02:41;21.90;80.00